Apulia Station, New York
Current Conditions -  °F | °C
As of 2:35 PM on Friday 24 Oct 2014 (Local Time) from KN03 Reporting Station
Clear Clear  
Wind Chill: 15°   Ceiling: Unl
Heat Index: 15°   Visibility: 10mi
Dew Point:   Wind: 12mph
Humidity: 51%   Direction: 290°WNW
Pressure: 29.9"   Gusts: NA
Location:  42.82°N, 76.07°W
Report Text: KN03 241835Z AUTO 29010KT 10SM CLR 15/05 A2990 RMK AO2
Loading
Personal Weather Stations






























Interactive Weather Map
Tropical Storm Tracking
New forecast layout! Learn more

10-Day Weather Forecast

Advertisements
Track Severe Weather on mobile